Latest Weather Observations for Campania

IDT60801

Issued at 7:05 pm EDT Thursday 23 October 2014 (issued every 30 minutes, with the page automatically refreshed every 10 minutes)

About weather observations | Map of weather stations | Latest weather observations for TAS | Other Formats
Station Details ID: 094212 Name: CAMPANIA (KINCORA) Lat: -42.69 Lon: 147.43 Height: 45.0 m
Data from the previous 72 hours. | See also: Recent months at Campania
Date/Time
EDT
Temp
°C
App
Temp
°C
Dew
Point
Rel
Hum
%
Delta-T
°C
Wind Press
QNH
hPa
Press
MSL
hPa
Rain
since 9 am
mm
Dir
 
Spd
km/h
Gust
km/h
Spd
kts
Gust
kts
23/07:00pm 13.0 9.4 4.9 58 3.7 ENE 13 19 7 10 - - 0.0
23/06:30pm 14.1 9.7 4.7 53 4.4 ENE 17 22 9 12 - - 0.0
23/06:00pm 15.4 11.9 5.3 51 4.8 E 13 22 7 12 - - 0.0
23/05:30pm 15.4 10.3 5.9 53 4.6 SSE 22 30 12 16 - - 0.0
23/05:00pm 15.7 10.6 6.2 53 4.6 SSE 22 30 12 16 - - 0.0
23/04:30pm 15.8 11.3 6.8 55 4.4 SSE 20 32 11 17 - - 0.0
23/04:00pm 16.2 11.8 6.6 53 4.7 SE 19 28 10 15 - - 0.0
23/03:30pm 16.7 12.1 6.5 51 5.0 SSE 20 30 11 16 - - 0.0
23/03:00pm 15.8 10.7 6.0 52 4.7 SSE 22 30 12 16 - - 0.0
23/02:30pm 16.1 11.6 6.3 52 4.8 SSE 19 28 10 15 - - 0.0
23/02:00pm 15.6 10.9 5.2 50 4.9 SE 19 26 10 14 - - 0.0
23/01:30pm 15.7 10.9 5.6 51 4.8 S 20 30 11 16 - - 0.0
23/01:00pm 15.3 10.4 5.2 51 4.8 S 20 30 11 16 - - 0.0
23/12:30pm 14.9 10.1 4.9 51 4.7 SE 19 28 10 15 - - 0.0
23/12:00pm 14.4 10.2 5.5 55 4.2 S 17 33 9 18 - - 0.0
23/11:30am 14.6 10.8 5.9 56 4.2 SSE 15 20 8 11 - - 0.0
23/11:00am 13.7 10.0 4.3 53 4.3 SE 13 20 7 11 - - 0.0
23/10:30am 13.4 9.2 4.0 53 4.3 S 15 20 8 11 - - 0.0
23/10:00am 12.5 8.0 4.2 57 3.8 S 17 28 9 15 - - 0.0
23/09:30am 12.3 7.9 5.0 61 3.4 S 17 26 9 14 - - 0.0
23/09:00am 11.9 7.5 4.6 61 3.3 SSE 17 26 9 14 - - 0.0
23/08:30am 12.1 7.3 4.6 60 3.4 S 19 26 10 14 - - 0.0
23/08:00am 11.0 5.8 3.8 61 3.2 SSE 20 30 11 16 - - 0.0
23/07:30am 11.1 6.6 4.3 63 3.1 SSE 17 24 9 13 - - 0.0
23/07:00am 10.9 6.5 4.8 66 2.8 SSE 17 22 9 12 - - 0.0
23/06:30am 10.8 6.0 4.7 66 2.8 SSE 19 24 10 13 - - 0.0
23/06:00am 10.8 6.9 5.3 69 2.5 SSE 15 20 8 11 - - 0.0
23/05:30am 10.7 6.8 5.3 69 2.5 SSE 15 20 8 11 - - 0.0
23/05:00am 10.8 5.9 5.3 69 2.5 SSE 20 28 11 15 - - 0.0
23/04:30am 11.0 7.1 6.9 76 1.9 S 17 24 9 13 - - 0.0
23/04:00am 11.1 6.1 6.6 74 2.1 SSE 22 37 12 20 - - 0.0
23/03:30am 11.3 5.6 6.8 74 2.1 SSE 26 35 14 19 - - 0.0
23/03:00am 11.5 5.6 7.4 76 2.0 SSE 28 39 15 21 - - 0.0
23/02:30am 11.8 6.9 8.6 81 1.6 S 24 37 13 20 - - 0.0
23/02:00am 12.2 7.9 9.4 83 1.4 S 22 32 12 17 - - 0.0
23/01:30am 12.7 8.2 9.9 83 1.4 SSE 24 39 13 21 - - 0.0
23/01:00am 13.3 8.9 10.3 82 1.6 SSE 24 41 13 22 - - 0.0
23/12:30am 13.8 9.7 10.0 78 2.0 SSE 22 32 12 17 - - 0.0
23/12:00am 13.8 9.0 10.2 79 1.9 S 26 37 14 20 - - 0.0
 
Date/Time
EDT
Temp
°C
App
Temp
°C
Dew
Point
Rel
Hum
%
Delta-T
°C
Wind Press
QNH
hPa
Press
MSL
hPa
Rain
since 9 am
mm
Dir
 
Spd
km/h
Gust
km/h
Spd
kts
Gust
kts
22/11:30pm 13.9 9.5 10.3 79 1.9 S 24 35 13 19 - - 0.0
22/11:00pm 14.1 10.9 11.4 84 1.4 SSE 19 24 10 13 - - 0.0
22/10:30pm 13.8 13.2 11.8 88 1.1 S 6 7 3 4 - - 0.0
22/10:00pm 13.3 11.8 12.0 92 0.7 SSW 11 13 6 7 - - 0.0
22/09:30pm 12.4 11.0 11.0 91 0.7 SW 9 13 5 7 - - 0.0
22/09:00pm 13.2 11.6 11.4 89 1.0 S 11 15 6 8 - - 0.0
22/08:30pm 13.6 11.7 10.6 82 1.6 SSE 11 17 6 9 - - 0.0
22/08:00pm 14.9 11.2 9.3 69 2.9 SSE 19 26 10 14 - - 0.0
22/07:30pm 16.1 12.2 8.6 61 3.8 SSE 19 30 10 16 - - 0.0
22/07:00pm 18.3 15.0 9.4 56 4.7 SSE 17 22 9 12 - - 0.0
22/06:30pm 19.2 16.2 9.1 52 5.3 SSE 15 24 8 13 - - 0.0
22/06:00pm 19.8 16.2 10.5 55 5.0 S 20 28 11 15 - - 0.0
22/05:30pm 21.2 18.0 10.1 49 6.0 SSW 17 22 9 12 - - 0.0
22/05:00pm 21.2 19.0 10.7 51 5.8 SSW 13 17 7 9 - - 0.0
22/04:30pm 21.8 17.4 10.3 48 6.3 S 24 30 13 16 - - 0.0
22/04:00pm 22.9 18.8 10.0 44 7.0 S 22 28 12 15 - - 0.0
22/03:30pm 26.9 25.6 9.3 33 9.7 S 6 9 3 5 - - 0.0
22/03:00pm 26.7 24.7 8.6 32 9.8 NNE 9 17 5 9 - - 0.0
22/02:30pm 27.1 24.9 9.5 33 9.7 NE 11 19 6 10 - - 0.0
22/02:00pm 26.3 24.6 11.2 38 8.6 N 11 19 6 10 - - 0.0
22/01:30pm 25.6 22.3 9.4 36 8.9 N 17 26 9 14 - - 0.0
22/01:00pm 24.1 20.2 7.3 34 8.8 N 17 26 9 14 - - 0.0
22/12:30pm 23.1 18.6 6.8 35 8.4 N 20 28 11 15 - - 0.0
22/12:00pm 23.0 18.8 7.5 37 8.1 N 19 30 10 16 - - 0.0
22/11:30am 21.5 16.7 7.3 40 7.3 N 22 32 12 17 - - 0.0
22/11:00am 20.3 15.2 7.7 44 6.5 N 24 32 13 17 - - 0.0
22/10:30am 19.3 14.5 7.4 46 6.1 N 22 30 12 16 - - 0.0
22/10:00am 17.1 14.7 6.9 51 5.1 NW 9 17 5 9 - - 0.0
22/09:30am 16.0 11.1 7.0 55 4.4 N 22 30 12 16 - - 0.0
22/09:00am 15.4 10.9 6.9 57 4.2 N 20 28 11 15 - - 0.0
22/08:30am 14.5 9.5 6.3 58 4.0 N 22 30 12 16 - - 0.0
22/08:00am 13.8 10.6 6.9 63 3.4 NNW 13 20 7 11 - - 0.0
22/07:30am 11.7 8.0 6.2 69 2.6 N 15 28 8 15 - - 0.0
22/07:00am 11.5 7.0 6.0 69 2.6 N 19 26 10 14 - - 0.0
22/06:30am 8.3 5.8 4.9 79 1.5 WNW 7 9 4 5 - - 0.0
22/06:00am 8.8 5.6 5.0 77 1.7 NW 11 13 6 7 - - 0.0
22/05:30am 9.2 6.0 5.2 76 1.8 NW 11 15 6 8 - - 0.0
22/05:00am 9.3 5.0 5.1 75 1.9 N 17 22 9 12 - - 0.0
22/04:30am 10.0 5.7 5.2 72 2.2 N 17 22 9 12 - - 0.0
22/04:00am 9.5 6.3 4.9 73 2.1 NNW 11 20 6 11 - - 0.0
22/03:30am 9.5 5.8 4.7 72 2.1 NNW 13 22 7 12 - - 0.0
22/03:00am 10.5 5.7 5.5 71 2.3 N 20 33 11 18 - - 0.0
22/02:30am 10.9 6.1 5.7 70 2.4 N 20 32 11 17 - - 0.0
22/02:00am 10.8 7.0 5.6 70 2.4 N 15 20 8 11 - - 0.0
22/01:30am 11.8 6.3 6.1 68 2.7 N 24 33 13 18 - - 0.0
22/01:00am 12.1 7.0 6.2 67 2.8 N 22 33 12 18 - - 0.0
22/12:30am 12.2 7.6 6.5 68 2.7 N 20 30 11 16 - - 0.0
22/12:00am 12.6 7.6 6.4 66 3.0 N 22 32 12 17 - - 0.0
 
Date/Time
EDT
Temp
°C
App
Temp
°C
Dew
Point
Rel
Hum
%
Delta-T
°C
Wind Press
QNH
hPa
Press
MSL
hPa
Rain
since 9 am
mm
Dir
 
Spd
km/h
Gust
km/h
Spd
kts
Gust
kts
21/11:30pm 13.2 8.6 6.5 64 3.2 N 20 28 11 15 - - 0.0
21/11:00pm 13.7 9.1 6.6 62 3.4 N 20 35 11 19 - - 0.0
21/10:30pm 12.4 9.2 6.7 68 2.7 N 13 19 7 10 - - 0.0
21/10:00pm 9.6 7.5 5.8 77 1.7 N 6 7 3 4 - - 0.0
21/09:30pm 11.2 9.3 6.7 74 2.1 WNW 6 7 3 4 - - 0.0
21/09:00pm 13.2 10.8 7.0 66 3.0 N 9 15 5 8 - - 0.0
21/08:30pm 13.5 10.7 7.1 65 3.1 NNE 11 17 6 9 - - 0.0
21/08:00pm 14.7 11.6 7.3 61 3.6 NNE 13 15 7 8 - - 0.0
21/07:30pm 15.9 12.4 7.1 56 4.4 NE 15 20 8 11 - - 0.0
21/07:00pm 17.6 14.5 7.1 50 5.3 NE 13 20 7 11 - - 0.0
21/06:30pm 18.8 14.8 6.6 45 6.1 NNE 17 24 9 13 - - 0.0
21/06:00pm 20.3 15.3 3.5 33 8.0 N 19 26 10 14 - - 0.0
21/05:30pm 20.4 15.9 4.4 35 7.7 NE 17 32 9 17 - - 0.0
21/05:00pm 20.8 16.1 3.1 31 8.4 N 17 26 9 14 - - 0.0
21/04:30pm 21.1 17.2 3.3 31 8.5 N 13 20 7 11 - - 0.0
21/04:00pm 20.9 16.6 3.2 31 8.4 N 15 20 8 11 - - 0.0
21/03:30pm 20.3 15.9 2.6 31 8.3 N 15 24 8 13 - - 0.0
21/03:00pm 20.1 15.0 2.9 32 8.1 N 19 32 10 17 - - 0.0
21/02:30pm 19.4 14.2 3.6 35 7.5 N 20 32 11 17 - - 0.0
21/02:00pm 19.2 14.6 3.8 36 7.3 N 17 28 9 15 - - 0.0
21/01:30pm 18.1 13.4 3.2 37 6.9 N 17 24 9 13 - - 0.0
21/01:00pm 17.5 12.7 4.5 42 6.2 N 19 30 10 16 - - 0.0
21/12:30pm 16.9 12.4 4.3 43 5.9 N 17 26 9 14 - - 0.0
21/12:00pm 16.7 12.3 4.7 45 5.7 N 17 24 9 13 - - 0.0
21/11:30am 16.0 11.2 4.4 46 5.4 N 19 24 10 13 - - 0.0
21/11:00am 15.2 11.1 4.6 49 5.0 N 15 24 8 13 - - 0.0
21/10:30am 14.9 10.1 4.6 50 4.8 N 19 30 10 16 - - 0.0
21/10:00am 13.9 8.8 4.2 52 4.4 N 20 30 11 16 - - 0.0
21/09:30am 12.1 9.1 3.9 57 3.7 WNW 9 17 5 9 - - 0.0
21/09:00am 11.6 8.1 3.6 58 3.6 NNW 11 15 6 8 - - 0.0
21/08:30am 9.9 6.4 3.6 65 2.8 N 11 13 6 7 - - 0.0
21/08:00am 8.0 5.4 4.4 78 1.6 NNE 7 9 4 5 - - 0.0
21/07:30am 5.6 2.9 3.6 87 0.8 NNE 7 9 4 5 - - 0.0
21/07:00am 3.5 0.2 2.3 92 0.5 N 9 9 5 5 - - 0.0
21/06:30am 2.1 -1.5 0.9 92 0.5 N 9 11 5 6 - - 0.0
21/06:00am 1.7 -1.9 0.5 92 0.4 N 9 11 5 6 - - 0.0
21/05:30am 2.1 -1.8 1.2 94 0.3 N 11 13 6 7 - - 0.0
21/05:00am 1.3 -2.0 0.4 94 0.3 N 7 11 4 6 - - 0.0
21/04:30am 1.5 -2.5 0.6 94 0.3 N 11 13 6 7 - - 0.0
21/04:00am 2.0 -1.9 1.4 96 0.2 N 11 15 6 8 - - 0.0
21/03:30am 1.8 -1.2 0.9 94 0.3 N 6 7 3 4 - - 0.0
21/03:00am 2.2 -0.7 1.3 94 0.3 N 6 7 3 4 - - 0.0
21/02:30am 2.0 -1.0 0.8 92 0.5 N 6 7 3 4 - - 0.0
21/02:00am 2.4 -1.1 1.1 91 0.5 N 9 11 5 6 - - 0.0
21/01:30am 3.0 -0.1 1.5 90 0.6 N 7 9 4 5 - - 0.0
21/01:00am 3.7 0.0 2.2 90 0.6 N 11 13 6 7 - - 0.0
21/12:30am 3.9 0.5 2.1 88 0.7 N 9 11 5 6 - - 0.0
21/12:00am 5.2 2.5 2.6 83 1.1 NNE 6 7 3 4 - - 0.0
 
Date/Time
EDT
Temp
°C
App
Temp
°C
Dew
Point
Rel
Hum
%
Delta-T
°C
Wind Press
QNH
hPa
Press
MSL
hPa
Rain
since 9 am
mm
Dir
 
Spd
km/h
Gust
km/h
Spd
kts
Gust
kts
20/11:30pm 6.9 4.2 3.7 80 1.4 NE 7 9 4 5 - - 0.0
20/11:00pm 8.3 6.0 4.7 78 1.6 NNE 6 9 3 5 - - 0.0
20/10:30pm 9.0 6.4 4.4 73 2.0 N 7 9 4 5 - - 0.0
20/10:00pm 9.7 8.6 4.9 72 2.2 CALM 0 6 0 3 - - 0.0
20/09:30pm 9.8 7.3 4.6 70 2.3 SE 7 9 4 5 - - 0.0
20/09:00pm 9.6 6.3 4.4 70 2.3 S 11 17 6 9 - - 0.0
20/08:30pm 9.5 5.8 4.3 70 2.3 S 13 17 7 9 - - 0.0
20/08:00pm 9.2 5.1 4.2 71 2.2 SSE 15 20 8 11 - - 0.0
20/07:30pm 9.7 5.1 3.7 66 2.6 SSE 17 22 9 12 - - 0.0

Other Formats:

Comma delimited format used in spreadsheet applications
http://www.bom.gov.au/fwo/IDT60801/IDT60801.95972.axf

JavaScript Object Notation format (JSON) in row-major order
http://www.bom.gov.au/fwo/IDT60801/IDT60801.95972.json